Time;durP1;ratioP1;P1;durP2;ratioP2;P2;SDS_P1;SDS_P2;PMS_P1;PMS_P2;Temp;Humidity;BMP_temperature;BMP_pressure;BME280_temperature;BME280_humidity;BME280_pressure;Samples;Min_cycle;Max_cycle;Signal;HPM_P1;HPM_P2
2023/03/12 00:00:39;;;;;;;12.63;5.63;;;;;;;1.70;nan;99944.28;5079518;28;20027;-70
2023/03/12 00:03:05;;;;;;;10.90;5.18;;;;;;;1.27;nan;99873.22;5082453;28;20028;-70
2023/03/12 00:05:30;;;;;;;8.80;4.38;;;;;;;;;;5085989;28;20086;-70
2023/03/12 00:07:58;;;;;;;8.98;4.63;;;;;;;;;;5084657;28;20032;-70
2023/03/12 00:10:24;;;;;;;8.27;4.40;;;;;;;;;;5083943;28;20039;-71
2023/03/12 00:12:49;;;;;;;7.72;4.22;;;;;;;;;;5080746;28;20409;-70
2023/03/12 00:15:14;;;;;;;9.57;4.17;;;;;;;1.23;nan;99895.28;5085217;28;20421;-70
2023/03/12 00:17:39;;;;;;;7.43;3.50;;;;;;;;;;5083314;28;20505;-71
2023/03/12 00:20:08;;;;;;;7.10;4.17;;;;;;;;;;5082142;28;20035;-70
2023/03/12 00:22:33;;;;;;;5.90;3.88;;;;;;;;;;5080506;28;20273;-71
2023/03/12 00:24:58;;;;;;;9.45;4.60;;;;;;;;;;5081266;28;20031;-71
2023/03/12 00:27:25;;;;;;;9.20;4.97;;;;;;;;;;5080718;28;20128;-71
2023/03/12 00:29:50;;;;;;;7.75;4.22;;;;;;;;;;5083489;28;20625;-71
2023/03/12 00:32:15;;;;;;;10.13;4.80;;;;;;;;;;5083651;28;20108;-73
2023/03/12 00:34:40;;;;;;;9.40;4.80;;;;;;;;;;5083893;28;20059;-73
2023/03/12 00:37:06;;;;;;;9.97;4.53;;;;;;;;;;5084042;28;20020;-73
2023/03/12 00:39:32;;;;;;;7.82;4.25;;;;;;;;;;5083516;28;20698;-74
2023/03/12 00:41:57;;;;;;;12.52;4.03;;;;;;;;;;5083412;28;20021;-73
2023/03/12 00:44:23;;;;;;;8.33;4.47;;;;;;;;;;5081733;28;20086;-73
2023/03/12 00:46:48;;;;;;;10.18;4.60;;;;;;;;;;5083751;28;20288;-73
2023/03/12 00:49:13;;;;;;;7.87;4.37;;;;;;;;;;5086024;28;20049;-73
2023/03/12 00:51:38;;;;;;;9.90;4.85;;;;;;;;;;5083644;28;20992;-75
2023/03/12 00:54:04;;;;;;;9.07;4.60;;;;;;;;;;5081595;28;20043;-72
2023/03/12 00:56:29;;;;;;;11.60;4.60;;;;;;;;;;5080098;28;20361;-73
2023/03/12 00:58:55;;;;;;;10.48;4.80;;;;;;;;;;5085075;28;20030;-73
2023/03/12 01:01:20;;;;;;;9.85;4.97;;;;;;;;;;5079658;28;20024;-73
2023/03/12 01:03:45;;;;;;;12.30;5.10;;;;;;;;;;5083681;28;20482;-73
2023/03/12 01:06:11;;;;;;;11.43;4.93;;;;;;;;;;5083912;28;20031;-70
2023/03/12 01:08:36;;;;;;;12.98;5.65;;;;;;;;;;5082431;28;20027;-71
2023/03/12 01:11:02;;;;;;;9.18;4.82;;;;;;;;;;5082744;28;20027;-71
2023/03/12 01:13:27;;;;;;;8.85;4.88;;;;;;;;;;5081330;28;20650;-70
2023/03/12 01:15:52;;;;;;;10.48;5.60;;;;;;;;;;5084963;28;20036;-70
2023/03/12 01:18:18;;;;;;;7.83;5.13;;;;;;;;;;5079819;28;20526;-71
2023/03/12 01:20:43;;;;;;;7.45;4.53;;;;;;;;;;5079465;28;20364;-70
2023/03/12 01:23:08;;;;;;;10.23;4.87;;;;;;;;;;5083306;28;20053;-70
2023/03/12 01:25:34;;;;;;;7.70;4.50;;;;;;;;;;5078856;28;20762;-70
2023/03/12 01:28:00;;;;;;;9.38;4.90;;;;;;;;;;5083058;28;20388;-70
2023/03/12 01:30:26;;;;;;;7.90;4.38;;;;;;;;;;5083288;28;20114;-71
2023/03/12 01:32:51;;;;;;;9.45;4.60;;;;;;;;;;5083367;28;20035;-71
2023/03/12 01:35:17;;;;;;;11.40;4.80;;;;;;;;;;5083213;28;20055;-71
2023/03/12 01:37:42;;;;;;;8.45;4.88;;;;;;;;;;5077184;28;20280;-71
2023/03/12 01:40:12;;;;;;;8.52;5.03;;;;;;;;;;5081338;28;20070;-71
2023/03/12 01:42:38;;;;;;;8.35;5.30;;;;;;;;;;5079339;28;20035;-72
2023/03/12 01:45:03;;;;;;;10.33;5.30;;;;;;;;;;5077394;28;20032;-70
2023/03/12 01:47:32;;;;;;;9.85;4.93;;;;;;;;;;5080608;28;20272;-71
2023/03/12 01:49:58;;;;;;;8.32;4.90;;;;;;;;;;5082376;28;20107;-70
2023/03/12 01:52:28;;;;;;;9.13;4.75;;;;;;;;;;5081049;28;20691;-70
2023/03/12 01:55:00;;;;;;;7.55;4.38;;;;;;;;;;5085423;28;20564;-71
2023/03/12 01:57:28;;;;;;;8.52;4.93;;;;;;;;;;5080608;28;20036;-71
2023/03/12 01:59:56;;;;;;;10.35;5.22;;;;;;;;;;5083668;28;20816;-70
2023/03/12 02:02:25;;;;;;;9.65;5.10;;;;;;;;;;5077200;28;20028;-70
2023/03/12 02:04:56;;;;;;;10.98;5.13;;;;;;;;;;5081001;28;20077;-70
2023/03/12 02:07:21;;;;;;;10.20;5.47;;;;;;;;;;5077862;28;20844;-70
2023/03/12 02:09:48;;;;;;;10.70;5.17;;;;;;;;;;5082118;28;20027;-71
2023/03/12 02:12:14;;;;;;;9.80;5.22;;;;;;;;;;5078491;28;20298;-70
2023/03/12 02:14:39;;;;;;;12.30;5.82;;;;;;;;;;5076836;28;20035;-70
2023/03/12 02:17:05;;;;;;;10.18;5.45;;;;;;;;;;5078255;28;20143;-71
2023/03/12 02:19:37;;;;;;;9.07;4.95;;;;;;;;;;5080321;28;20020;-71
2023/03/12 02:22:03;;;;;;;12.27;5.63;;;;;;;;;;5073951;28;20024;-71
2023/03/12 02:24:28;;;;;;;9.00;4.88;;;;;;;;;;5081792;28;20386;-71
2023/03/12 02:26:54;;;;;;;11.87;5.57;;;;;;;;;;5078852;28;20036;-70
2023/03/12 02:29:19;;;;;;;9.77;5.65;;;;;;;;;;5077000;28;20275;-70
2023/03/12 02:31:47;;;;;;;10.55;5.28;;;;;;;;;;5080913;28;20115;-68
2023/03/12 02:34:12;;;;;;;8.90;4.95;;;;;;;;;;5079098;28;20031;-68
2023/03/12 02:36:38;;;;;;;10.95;5.47;;;;;;;;;;5075767;28;20024;-68
2023/03/12 02:39:04;;;;;;;8.90;5.30;;;;;;;;;;5083032;28;20032;-69
2023/03/12 02:41:40;;;;;;;10.57;5.53;;;;;;;;;;5076636;28;20272;-68
2023/03/12 02:44:11;;;;;;;9.98;5.38;;;;;;;;;;5079472;28;20046;-68
2023/03/12 02:46:39;;;;;;;10.90;5.10;;;;;;;;;;5077836;28;20032;-69
2023/03/12 02:49:04;;;;;;;9.95;5.38;;;;;;;;;;5079331;28;21233;-69
2023/03/12 02:51:29;;;;;;;10.25;5.47;;;;;;;;;;5082951;28;20031;-70
2023/03/12 02:53:55;;;;;;;10.37;4.80;;;;;;;;;;5080321;28;20497;-71
2023/03/12 02:56:21;;;;;;;13.35;5.40;;;;;;;;;;5082629;28;20280;-70
2023/03/12 02:58:47;;;;;;;8.38;4.70;;;;;;;;;;5082471;28;20107;-71
2023/03/12 03:01:12;;;;;;;9.45;5.55;;;;;;;;;;5081868;28;20115;-70
2023/03/12 03:03:37;;;;;;;11.20;5.10;;;;;;;;;;5084525;28;20031;-70
2023/03/12 03:06:03;;;;;;;9.05;5.03;;;;;;;;;;5081669;28;20778;-70
2023/03/12 03:08:28;;;;;;;9.07;5.03;;;;;;;;;;5078906;28;20080;-70
2023/03/12 03:10:54;;;;;;;12.50;5.73;;;;;;;;;;5079426;28;20035;-70
2023/03/12 03:13:19;;;;;;;10.70;5.07;;;;;;;;;;5079969;28;20024;-71
2023/03/12 03:15:44;;;;;;;8.88;5.57;;;;;;;;;;5083183;28;20028;-71
2023/03/12 03:18:09;;;;;;;9.80;5.47;;;;;;;;;;5080949;28;20056;-70
2023/03/12 03:20:35;;;;;;;8.40;4.97;;;;;;;;;;5081961;28;20032;-70
2023/03/12 03:23:00;;;;;;;9.88;5.70;;;;;;;;;;5076887;28;20299;-70
2023/03/12 03:25:25;;;;;;;10.40;5.32;;;;;;;;;;5076364;28;20032;-71
2023/03/12 03:27:51;;;;;;;9.23;5.60;;;;;;;;;;5075566;28;20498;-71
2023/03/12 03:30:16;;;;;;;10.55;6.30;;;;;;;;;;5078062;28;20024;-70
2023/03/12 03:32:42;;;;;;;10.57;6.05;;;;;;;;;;5079256;28;20028;-68
2023/03/12 03:35:07;;;;;;;10.90;5.97;;;;;;;;;;5078810;28;20131;-71
2023/03/12 03:37:32;;;;;;;12.55;5.53;;;;;;;;;;5079640;28;20031;-70
2023/03/12 03:39:58;;;;;;;10.97;5.43;;;;;;;;;;5080595;28;20390;-70
2023/03/12 03:42:23;;;;;;;10.80;5.97;;;;;;;;;;5082146;28;20276;-71
2023/03/12 03:44:48;;;;;;;11.47;6.20;;;;;;;;;;5077543;28;20291;-72
2023/03/12 03:47:13;;;;;;;9.60;5.47;;;;;;;;;;5081021;28;20789;-71
2023/03/12 03:49:39;;;;;;;10.50;5.63;;;;;;;;;;5078905;28;20027;-71
2023/03/12 03:52:05;;;;;;;12.05;5.78;;;;;;;;;;5076216;28;20036;-70
2023/03/12 03:54:30;;;;;;;9.75;5.70;;;;;;;;;;5079635;28;20028;-71
2023/03/12 03:56:55;;;;;;;11.70;5.67;;;;;;;;;;5081324;28;20029;-71
2023/03/12 03:59:20;;;;;;;11.50;5.90;;;;;;;;;;5077454;28;20020;-70
2023/03/12 04:01:46;;;;;;;9.70;5.57;;;;;;;;;;5075852;28;20085;-70
2023/03/12 04:04:11;;;;;;;11.17;6.40;;;;;;;;;;5078617;28;20276;-70
2023/03/12 04:06:36;;;;;;;12.33;5.70;;;;;;;;;;5084982;28;20303;-70
2023/03/12 04:09:02;;;;;;;10.25;6.28;;;;;;;;;;5080365;28;20273;-70
2023/03/12 04:11:27;;;;;;;12.75;6.20;;;;;;;;;;5085868;28;20113;-70
2023/03/12 04:13:52;;;;;;;9.27;5.45;;;;;;;;;;5081278;28;20577;-71
2023/03/12 04:16:17;;;;;;;11.03;6.10;;;;;;;;;;5083297;28;20507;-70
2023/03/12 04:18:43;;;;;;;9.77;6.20;;;;;;;;;;5080845;28;20287;-70
2023/03/12 04:21:10;;;;;;;11.30;6.00;;;;;;;;;;5082054;28;20284;-71
2023/03/12 04:23:36;;;;;;;12.85;6.15;;;;;;;;;;5084869;28;20051;-71
2023/03/12 04:26:01;;;;;;;12.25;6.60;;;;;;;;;;5084223;28;20101;-70
2023/03/12 04:28:27;;;;;;;10.88;6.40;;;;;;;;;;5082887;28;20035;-71
2023/03/12 04:30:58;;;;;;;12.95;6.25;;;;;;;;;;5082523;28;20020;-70
2023/03/12 04:33:23;;;;;;;10.93;6.18;;;;;;;;;;5084270;28;20027;-70
2023/03/12 04:35:52;;;;;;;10.63;5.83;;;;;;;;;;5085987;28;20024;-70
2023/03/12 04:38:18;;;;;;;10.63;6.33;;;;;;;;;;5085219;28;20631;-71
2023/03/12 04:40:43;;;;;;;9.80;5.75;;;;;;;;;;5082751;28;20031;-71
2023/03/12 04:43:08;;;;;;;13.27;6.10;;;;;;;;;;5075747;28;20118;-71
2023/03/12 04:45:33;;;;;;;12.20;6.10;;;;;;;;;;5082927;28;20035;-71
2023/03/12 04:47:59;;;;;;;11.32;6.05;;;;;;;;;;5078039;28;20281;-68
2023/03/12 04:50:25;;;;;;;13.63;6.03;;;;;;;;;;5081620;28;20031;-69
2023/03/12 04:52:50;;;;;;;10.48;6.10;;;;;;;;;;5081636;28;20341;-69
2023/03/12 04:55:15;;;;;;;12.90;6.10;;;;;;;;;;5082329;28;20020;-69
2023/03/12 04:57:40;;;;;;;14.82;6.40;;;;;;;;;;5082803;28;20329;-70
2023/03/12 05:00:11;;;;;;;14.47;6.17;;;;;;;;;;5083848;28;20016;-70
2023/03/12 05:02:37;;;;;;;13.95;6.60;;;;;;;;;;5081983;28;20028;-69
2023/03/12 05:05:02;;;;;;;13.52;6.18;;;;;;;;;;5078208;28;20027;-72
2023/03/12 05:07:27;;;;;;;15.77;6.70;;;;;;;;;;5081373;28;20118;-71
2023/03/12 05:09:53;;;;;;;12.30;6.30;;;;;;;;;;5083701;28;20951;-71
2023/03/12 05:12:18;;;;;;;14.77;6.53;;;;;;;;;;5079472;28;20055;-70
2023/03/12 05:14:43;;;;;;;11.90;6.27;;;;;;;;;;5085587;28;20493;-70
2023/03/12 05:17:08;;;;;;;14.90;6.73;;;;;;;;;;5079335;28;20521;-71
2023/03/12 05:19:34;;;;;;;12.85;5.90;;;;;;;;;;5084595;28;20268;-70
2023/03/12 05:21:59;;;;;;;11.70;6.20;;;;;;;;;;5092738;27;20394;-70
2023/03/12 05:24:24;;;;;;;12.07;6.73;;;;;;;;;;5083946;28;20385;-71
2023/03/12 05:26:52;;;;;;;10.97;6.27;;;;;;;;;;5082587;28;20284;-71
2023/03/12 05:29:17;;;;;;;11.63;6.35;;;;;;;;;;5080520;28;20272;-72
2023/03/12 05:31:43;;;;;;;12.73;6.47;;;;;;;;;;5080714;28;20048;-73
2023/03/12 05:34:09;;;;;;;13.13;7.03;;;;;;;;;;5082720;28;20273;-72
2023/03/12 05:36:35;;;;;;;13.00;7.20;;;;;;;;;;5084106;28;20031;-73
2023/03/12 05:39:00;;;;;;;15.90;7.45;;;;;;;;;;5085383;28;20031;-71
2023/03/12 05:41:26;;;;;;;15.13;7.30;;;;;;;;;;5083048;28;20753;-71
2023/03/12 05:43:53;;;;;;;13.52;7.00;;;;;;;;;;5080104;28;20032;-70
2023/03/12 05:46:18;;;;;;;14.23;6.60;;;;;;;;;;5084200;28;20023;-70
2023/03/12 05:48:43;;;;;;;16.25;7.50;;;;;;;;;;5082299;28;20097;-69
2023/03/12 05:51:08;;;;;;;14.00;6.90;;;;;;;;;;5083116;28;20120;-70
2023/03/12 05:53:34;;;;;;;13.10;7.30;;;;;;;;;;5080755;28;20081;-71
2023/03/12 05:56:06;;;;;;;12.67;7.03;;;;;;;;;;5082265;28;20288;-70
2023/03/12 05:58:33;;;;;;;12.40;6.75;;;;;;;;;;5083618;28;20289;-70
2023/03/12 06:00:58;;;;;;;15.13;7.38;;;;;;;;;;5077784;28;20060;-72
2023/03/12 06:03:23;;;;;;;13.40;7.05;;;;;;;;;;5076935;28;20086;-70
2023/03/12 06:05:49;;;;;;;14.38;7.47;;;;;;;;;;5078031;28;20088;-70
2023/03/12 06:08:14;;;;;;;15.82;7.72;;;;;;;;;;5077374;28;20032;-70
2023/03/12 06:10:39;;;;;;;12.05;6.32;;;;;;;;;;5078123;28;20808;-71
2023/03/12 06:13:05;;;;;;;12.23;6.55;;;;;;;;;;5082581;28;20036;-70
2023/03/12 06:15:30;;;;;;;17.60;8.68;;;;;;;;;;5080027;28;20024;-71
2023/03/12 06:17:55;;;;;;;14.63;6.97;;;;;;;;;;5080795;28;20052;-71
2023/03/12 06:20:21;;;;;;;14.60;7.03;;;;;;;;;;5082781;28;20054;-71
2023/03/12 06:22:46;;;;;;;13.02;7.10;;;;;;;;;;5083578;28;20345;-70
2023/03/12 06:25:11;;;;;;;12.87;6.73;;;;;;;;;;5076501;28;20063;-71
2023/03/12 06:27:37;;;;;;;11.63;6.70;;;;;;;;;;5080998;28;21075;-70
2023/03/12 06:30:03;;;;;;;11.80;6.93;;;;;;;;;;5077931;28;20363;-70
2023/03/12 06:32:29;;;;;;;10.25;6.22;;;;;;;;;;5078340;28;20115;-71
2023/03/12 06:34:54;;;;;;;12.30;6.37;;;;;;;;;;5081290;28;20107;-70
2023/03/12 06:37:19;;;;;;;11.17;6.63;;;;;;;;;;5079224;28;20276;-70
2023/03/12 06:39:44;;;;;;;12.20;6.20;;;;;;;;;;5077806;28;20345;-71
2023/03/12 06:42:11;;;;;;;13.83;6.03;;;;;;;;;;5076985;28;20659;-71
2023/03/12 06:44:37;;;;;;;14.20;8.00;;;;;;;;;;5079412;28;20713;-71
2023/03/12 06:47:02;;;;;;;16.67;8.50;;;;;;;;;;5077800;28;20028;-70
2023/03/12 06:49:31;;;;;;;13.90;7.43;;;;;;;;;;5081586;28;20036;-71
2023/03/12 06:51:56;;;;;;;15.00;7.38;;;;;;;;;;5081107;28;20077;-70
2023/03/12 06:54:21;;;;;;;10.68;5.97;;;;;;;;;;5082537;28;20585;-70
2023/03/12 06:56:46;;;;;;;11.70;6.67;;;;;;;;;;5080484;28;20028;-70
2023/03/12 06:59:12;;;;;;;12.33;6.80;;;;;;;;;;5076400;28;20752;-71
2023/03/12 07:01:37;;;;;;;17.80;7.00;;;;;;;;;;5080763;28;20281;-70
2023/03/12 07:04:02;;;;;;;13.13;6.65;;;;;;;;;;5077604;28;20338;-70
2023/03/12 07:06:28;;;;;;;11.50;6.82;;;;;;;;;;5081392;28;20028;-70
2023/03/12 07:08:53;;;;;;;13.43;6.70;;;;;;;;;;5080771;28;20074;-70
2023/03/12 07:11:18;;;;;;;12.57;6.75;;;;;;;;;;5075783;28;20462;-71
2023/03/12 07:13:43;;;;;;;11.87;6.20;;;;;;;;;;5075228;28;20028;-70
2023/03/12 07:16:09;;;;;;;13.23;6.50;;;;;;;;;;5079509;28;20289;-71
2023/03/12 07:18:34;;;;;;;14.60;6.80;;;;;;;;;;5082614;28;20048;-70
2023/03/12 07:20:59;;;;;;;13.40;7.17;;;;;;;;;;5084306;28;20055;-69
2023/03/12 07:23:25;;;;;;;12.10;6.55;;;;;;;;;;5079099;28;20885;-70
2023/03/12 07:25:51;;;;;;;13.50;8.02;;;;;;;;;;5081671;28;20454;-69
2023/03/12 07:28:16;;;;;;;12.80;6.80;;;;;;;;;;5078185;28;20020;-70
2023/03/12 07:30:41;;;;;;;13.95;6.97;;;;;;;;;;5079561;28;20028;-72
2023/03/12 07:33:11;;;;;;;15.10;7.57;;;;;;;;;;5073282;28;20123;-71
2023/03/12 07:35:37;;;;;;;14.23;7.55;;;;;;;;;;5077685;28;20105;-70
2023/03/12 07:38:03;;;;;;;13.18;7.72;;;;;;;;;;5080172;28;21442;-70
2023/03/12 07:40:29;;;;;;;15.77;7.75;;;;;;;;;;5081915;28;20844;-70
2023/03/12 07:42:54;;;;;;;16.33;7.43;;;;;;;;;;5083153;28;20032;-69
2023/03/12 07:45:20;;;;;;;15.15;7.70;;;;;;;;;;5081393;28;20031;-69
2023/03/12 07:47:45;;;;;;;11.52;6.53;;;;;;;;;;5081158;28;20077;-68
2023/03/12 07:50:11;;;;;;;13.68;7.47;;;;;;;;;;5082690;28;20099;-73
2023/03/12 07:52:36;;;;;;;12.60;6.45;;;;;;;;;;5084138;28;20020;-73
2023/03/12 07:55:02;;;;;;;13.73;6.70;;;;;;;;;;5080780;28;20059;-72
2023/03/12 07:57:27;;;;;;;12.45;6.15;;;;;;;;;;5083907;28;20316;-69
2023/03/12 07:59:52;;;;;;;9.83;5.00;;;;;;;;;;5076774;28;20055;-68
2023/03/12 08:02:19;;;;;;;11.20;4.50;;;;;;;;;;5080938;28;20288;-70
2023/03/12 08:04:44;;;;;;;7.78;4.57;;;;;;;;;;5078195;28;20296;-68
2023/03/12 08:07:09;;;;;;;7.65;4.60;;;;;;;;;;5079624;28;20035;-73
2023/03/12 08:09:37;;;;;;;7.20;4.60;;;;;;;;;;5082493;28;20040;-73
2023/03/12 08:12:02;;;;;;;10.50;4.90;;;;;;;;;;5079604;28;20028;-74
2023/03/12 08:14:30;;;;;;;6.77;4.30;;;;;;;;;;5080241;28;20584;-73
2023/03/12 08:16:56;;;;;;;5.03;3.55;;;;;;;;;;5086058;28;20315;-74
2023/03/12 08:19:21;;;;;;;5.45;3.20;;;;;;;;;;5082154;28;20025;-73
2023/03/12 08:21:47;;;;;;;8.70;3.83;;;;;;;;;;5081733;28;20029;-74
2023/03/12 08:24:12;;;;;;;6.40;3.50;;;;;;;;;;5082639;28;20498;-74
2023/03/12 08:26:37;;;;;;;7.43;3.40;;;;;;;;;;5083559;28;20276;-73
2023/03/12 08:29:02;;;;;;;6.13;3.57;;;;;;;;;;5084349;28;20779;-73
2023/03/12 08:31:28;;;;;;;6.77;3.73;;;;;;;;;;5084955;28;20276;-74
2023/03/12 08:33:53;;;;;;;4.47;2.80;;;;;;;;;;5085281;28;20371;-74
2023/03/12 08:36:18;;;;;;;5.47;3.20;;;;;;;;;;5084327;28;20032;-73
2023/03/12 08:38:44;;;;;;;6.28;3.67;;;;;;;;;;5079346;28;20365;-73
2023/03/12 08:41:09;;;;;;;5.60;3.30;;;;;;;;;;5081957;28;20071;-73
2023/03/12 08:43:34;;;;;;;6.88;3.40;;;;;;;;;;5083304;28;20036;-72
2023/03/12 08:46:01;;;;;;;6.53;3.25;;;;;;;;;;5083046;28;20024;-71
2023/03/12 08:48:27;;;;;;;5.75;3.30;;;;;;;;;;5082417;28;20039;-71
2023/03/12 08:50:56;;;;;;;6.78;3.58;;;;;;;;;;5084049;28;20050;-71
2023/03/12 08:53:21;;;;;;;5.97;3.40;;;;;;;;;;5084254;28;20024;-72
2023/03/12 08:55:47;;;;;;;6.18;3.38;;;;;;;;;;5084741;28;20035;-72
2023/03/12 08:58:12;;;;;;;6.07;3.58;;;;;;;;;;5085406;28;20028;-70
2023/03/12 09:00:37;;;;;;;5.47;3.53;;;;;;;;;;5083762;28;20466;-71
2023/03/12 09:03:03;;;;;;;6.22;3.40;;;;;;;;;;5084034;28;20361;-71
2023/03/12 09:05:28;;;;;;;6.47;3.97;;;;;;;;;;5083785;28;20026;-72
2023/03/12 09:07:54;;;;;;;5.60;3.50;;;;;;;;;;5087200;28;20027;-73
2023/03/12 09:10:19;;;;;;;5.78;3.30;;;;;;;;;;5086061;28;20431;-73
2023/03/12 09:12:45;;;;;;;6.23;3.20;;;;;;;;;;5085241;28;20553;-72
2023/03/12 09:15:10;;;;;;;5.78;3.00;;;;;;;;;;5081107;28;20474;-74
2023/03/12 09:17:36;;;;;;;6.20;3.55;;;;;;;;;;5083803;28;20788;-72
2023/03/12 09:20:01;;;;;;;5.10;3.30;;;;;;;;;;5080441;28;20540;-72
2023/03/12 09:22:28;;;;;;;9.65;4.18;;;;;;;;;;5082456;28;20078;-72
2023/03/12 09:24:53;;;;;;;7.70;4.15;;;;;;;;;;5080398;28;20056;-72
2023/03/12 09:27:27;;;;;;;9.48;4.28;;;;;;;;;;5081229;28;20476;-71
2023/03/12 09:29:53;;;;;;;7.00;3.60;;;;;;;;;;5084445;28;20099;-72
2023/03/12 09:32:18;;;;;;;6.57;4.03;;;;;;;;;;5082628;28;20572;-69
2023/03/12 09:34:44;;;;;;;6.50;3.92;;;;;;;;;;5084691;28;20114;-69
2023/03/12 09:37:09;;;;;;;7.82;3.88;;;;;;;;;;5086734;28;20025;-70
2023/03/12 09:39:34;;;;;;;19.02;6.28;;;;;;;;;;5081928;28;20061;-68
2023/03/12 09:42:00;;;;;;;19.40;6.30;;;;;;;;;;5081619;28;20028;-68
2023/03/12 09:44:33;;;;;;;11.23;4.53;;;;;;;;;;5083486;28;20185;-67
2023/03/12 09:47:11;;;;;;;7.50;4.00;;;;;;;;;;5080628;28;20956;-67
2023/03/12 09:49:47;;;;;;;8.63;4.20;;;;;;;;;;5075209;28;20077;-67
2023/03/12 09:52:20;;;;;;;6.68;4.03;;;;;;;;;;5078809;28;20043;-70
2023/03/12 09:55:09;;;;;;;10.55;4.82;;;;;;;;;;5083037;28;20389;-68
2023/03/12 09:57:35;;;;;;;9.05;4.00;;;;;;;;;;5080031;28;20020;-69
2023/03/12 10:00:06;;;;;;;5.20;3.28;;;;;;;;;;5081751;28;20496;-68
2023/03/12 10:02:46;;;;;;;5.65;3.47;;;;;;;;;;5080617;28;20069;-68
2023/03/12 10:05:11;;;;;;;8.05;4.38;;;;;;;;;;5077638;28;20028;-68
2023/03/12 10:07:41;;;;;;;6.97;4.30;;;;;;;;;;5082568;28;20077;-69
2023/03/12 10:10:13;;;;;;;9.65;4.40;;;;;;;;;;5077774;28;20401;-69
2023/03/12 10:12:53;;;;;;;15.18;5.80;;;;;;;;;;5075978;28;20049;-70
2023/03/12 10:15:26;;;;;;;7.30;3.88;;;;;;;;;;5080612;28;20097;-69
2023/03/12 10:17:51;;;;;;;8.73;3.90;;;;;;;;;;5077965;28;20048;-69
2023/03/12 10:20:25;;;;;;;7.75;4.07;;;;;;;;;;5083049;28;20035;-68
2023/03/12 10:23:16;;;;;;;9.60;5.10;;;;;;;;;;5077864;28;20106;-69
2023/03/12 10:25:51;;;;;;;9.70;5.13;;;;;;;;;;5057005;28;20402;-70
2023/03/12 10:28:18;;;;;;;8.10;4.40;;;;;;;;;;5084500;28;20028;-68
2023/03/12 10:30:50;;;;;;;5.75;3.47;;;;;;;;;;5084653;28;20092;-69
2023/03/12 10:33:17;;;;;;;7.38;3.97;;;;;;;;;;5079459;28;20028;-69
2023/03/12 10:35:46;;;;;;;5.15;3.38;;;;;;;;;;5081935;28;20032;-67
2023/03/12 10:38:21;;;;;;;17.90;6.75;;;;;;;;;;5083629;28;20037;-69
2023/03/12 10:40:46;;;;;;;11.00;5.05;;;;;;;;;;5082192;28;20310;-74
2023/03/12 10:43:11;;;;;;;7.68;4.45;;;;;;;;;;5081418;28;20486;-74
2023/03/12 10:45:43;;;;;;;7.77;4.37;;;;;;;;;;5082086;28;20024;-74
2023/03/12 10:48:10;;;;;;;7.90;4.47;;;;;;;;;;5079526;28;20797;-74
2023/03/12 10:50:37;;;;;;;8.63;4.50;;;;;;;;;;5081994;28;20525;-73
2023/03/12 10:53:11;;;;;;;7.65;4.15;;;;;;;;;;5082294;28;20028;-74
2023/03/12 10:55:37;;;;;;;6.88;4.20;;;;;;;;;;5078252;28;20105;-73
2023/03/12 10:58:02;;;;;;;10.75;6.13;;;;;;;;;;5084007;28;20478;-73
2023/03/12 11:00:29;;;;;;;8.87;5.50;;;;;;;;;;5080503;28;20032;-74
2023/03/12 11:03:02;;;;;;;9.00;5.00;;;;;;;;;;5077730;28;20284;-73
2023/03/12 11:05:32;;;;;;;12.13;5.78;;;;;;;;;;5078058;28;20027;-75
2023/03/12 11:07:59;;;;;;;9.77;5.43;;;;;;;;;;5080188;28;20028;-75
2023/03/12 11:10:42;;;;;;;6.55;4.43;;;;;;;;;;5078355;28;20035;-74
2023/03/12 11:13:21;;;;;;;6.93;4.63;;;;;;;;;;5082750;28;20023;-74
2023/03/12 11:15:47;;;;;;;;;;;;;;;;;;5082817;28;20032;-73
2023/03/12 11:18:21;;;;;;;8.20;4.70;;;;;;;;;;5085339;28;19922;-74
2023/03/12 11:20:49;;;;;;;10.10;4.63;;;;;;;;;;5083222;28;20024;-72
2023/03/12 11:23:15;;;;;;;11.30;5.90;;;;;;;;;;5084749;28;20105;-73
2023/03/12 11:25:40;;;;;;;8.20;4.40;;;;;;;;;;5078735;28;20055;-73
2023/03/12 11:28:10;;;;;;;7.80;3.90;;;;;;;;;;5087975;28;20047;-73
2023/03/12 11:30:38;;;;;;;8.10;4.68;;;;;;;;;;5086696;28;20292;-73
2023/03/12 11:33:04;;;;;;;7.72;4.55;;;;;;;;;;5084778;28;20424;-69
2023/03/12 11:35:32;;;;;;;12.88;6.22;;;;;;;;;;5083896;28;20805;-69
2023/03/12 11:38:17;;;;;;;7.75;4.38;;;;;;;;;;5073926;28;20025;-68
2023/03/12 11:40:48;;;;;;;9.38;4.20;;;;;;;;;;5079519;28;20111;-69
2023/03/12 11:43:22;;;;;;;8.05;4.20;;;;;;;;;;5084772;28;20039;-68
2023/03/12 11:46:14;;;;;;;5.78;3.78;;;;;;;;;;5085098;28;20130;-68
2023/03/12 11:49:03;;;;;;;5.63;3.58;;;;;;;;;;5080741;28;20036;-67
2023/03/12 11:51:31;;;;;;;6.33;3.90;;;;;;;;;;5083522;28;20085;-69
2023/03/12 11:54:15;;;;;;;4.80;3.35;;;;;;;;;;5083229;28;20280;-69
2023/03/12 11:56:40;;;;;;;5.72;3.42;;;;;;;;;;5081110;28;20371;-69
2023/03/12 11:59:24;;;;;;;7.20;4.63;;;;;;;;;;5083347;28;20038;-69
2023/03/12 12:01:55;;;;;;;6.15;3.83;;;;;;;;;;5080553;28;20352;-69
2023/03/12 12:04:39;;;;;;;6.57;4.13;;;;;;;;;;5080909;28;20111;-70
2023/03/12 12:07:42;;;;;;;6.63;3.83;;;;;;;;;;5080749;28;20036;-69
2023/03/12 12:10:26;;;;;;;6.05;3.85;;;;;;;;;;4990231;28;20412;-68
2023/03/12 12:13:03;;;;;;;6.53;4.03;;;;;;;;;;5003337;28;20061;-68
2023/03/12 12:15:34;;;;;;;5.75;3.63;;;;;;;;;;5003278;28;20408;-69
2023/03/12 12:18:12;;;;;;;5.70;3.45;;;;;;;;;;5005750;28;20140;-69
2023/03/12 12:20:38;;;;;;;7.18;3.70;;;;;;;;;;5003695;28;20037;-68
2023/03/12 12:23:13;;;;;;;7.40;4.78;;;;;;;;;;5005968;28;20082;-68
2023/03/12 12:25:38;;;;;;;5.70;3.60;;;;;;;;;;5001367;28;20038;-67
2023/03/12 12:28:03;;;;;;;6.00;3.47;;;;;;;;;;5002407;28;20785;-67
2023/03/12 12:30:43;;;;;;;6.50;3.60;;;;;;;;;;5003732;28;20037;-66
2023/03/12 12:33:08;;;;;;;;;;;;;;;;;;4988693;28;20026;-69
2023/03/12 12:35:42;;;;;;;4.33;2.93;;;;;;;;;;5001778;28;19928;-68
2023/03/12 12:38:14;;;;;;;8.02;3.85;;;;;;;;;;5006298;28;20037;-69
2023/03/12 12:40:43;;;;;;;6.20;3.63;;;;;;;6.45;nan;100601.06;5033521;28;20048;-69
2023/03/12 12:43:22;;;;;;;6.18;3.45;;;;;;;;;;5083658;28;20463;-69
2023/03/12 12:45:49;;;;;;;5.10;3.40;;;;;;;;;;5075109;28;20131;-70
2023/03/12 12:48:23;;;;;;;5.97;3.40;;;;;;;;;;5084726;28;20032;-70
2023/03/12 12:50:50;;;;;;;9.55;4.05;;;;;;;;;;5081028;28;20500;-69
2023/03/12 12:53:20;;;;;;;5.03;3.13;;;;;;;;;;5081442;28;20035;-71
2023/03/12 12:55:49;;;;;;;5.70;3.65;;;;;;;;;;5079666;28;20062;-70
2023/03/12 12:58:18;;;;;;;3.85;2.97;;;;;;;;;;5085160;28;20012;-70
2023/03/12 13:00:57;;;;;;;8.32;3.85;;;;;;;;;;5079970;28;20035;-70
2023/03/12 13:03:24;;;;;;;5.90;3.42;;;;;;;;;;5080970;28;20031;-70
2023/03/12 13:05:57;;;;;;;5.50;3.33;;;;;;;;;;5079633;28;20054;-70
2023/03/12 13:08:32;;;;;;;5.47;3.58;;;;;;;;;;5081094;28;20031;-70
2023/03/12 13:10:57;;;;;;;6.22;3.47;;;;;;;;;;5081105;28;20130;-70
2023/03/12 13:13:23;;;;;;;5.22;3.35;;;;;;;;;;5081159;28;20119;-70
2023/03/12 13:15:48;;;;;;;5.57;3.43;;;;;;;;;;5078819;28;20036;-70
2023/03/12 13:18:30;;;;;;;5.70;3.38;;;;;;;;;;5080261;28;20486;-72
2023/03/12 13:21:15;;;;;;;7.25;3.10;;;;;;;;;;5079787;28;20083;-72
2023/03/12 13:23:44;;;;;;;4.88;3.45;;;;;;;;;;5082099;28;20035;-72
2023/03/12 13:26:24;;;;;;;4.88;3.35;;;;;;;;;;5080891;28;20104;-72
2023/03/12 13:28:52;;;;;;;6.22;4.07;;;;;;;;;;5081958;28;20034;-70
2023/03/12 13:31:26;;;;;;;5.45;3.38;;;;;;;;;;5075499;28;20028;-70
2023/03/12 13:33:55;;;;;;;6.28;3.65;;;;;;;;;;5076307;28;20028;-69
2023/03/12 13:36:22;;;;;;;5.60;3.57;;;;;;;;;;5078454;28;20099;-67
2023/03/12 13:38:52;;;;;;;4.70;3.20;;;;;;;;;;5080893;28;20030;-67
2023/03/12 13:41:29;;;;;;;5.47;3.65;;;;;;;;;;5075653;28;20031;-68
2023/03/12 13:43:55;;;;;;;5.10;3.20;;;;;;;;;;5080446;28;20474;-69
2023/03/12 13:46:26;;;;;;;5.65;3.38;;;;;;;;;;5080636;28;20437;-68
2023/03/12 13:48:56;;;;;;;6.07;3.97;;;;;;;;;;5075486;28;20078;-68
2023/03/12 13:51:23;;;;;;;5.10;3.40;;;;;;;;;;5081274;28;20090;-68
2023/03/12 13:53:51;;;;;;;4.80;3.17;;;;;;;;;;5080344;28;20115;-68
2023/03/12 13:56:17;;;;;;;3.92;3.03;;;;;;;;;;5082550;28;20034;-69
2023/03/12 13:58:48;;;;;;;4.95;3.25;;;;;;;;;;5080625;28;20042;-66
2023/03/12 14:01:16;;;;;;;6.35;3.42;;;;;;;;;;5079836;28;20035;-68
2023/03/12 14:03:48;;;;;;;6.13;3.63;;;;;;;;;;5084049;28;20081;-68
2023/03/12 14:06:16;;;;;;;5.60;3.47;;;;;;;;;;5080541;28;20660;-69
2023/03/12 14:08:50;;;;;;;4.07;3.03;;;;;;;;;;5079354;28;20390;-68
2023/03/12 14:11:21;;;;;;;5.05;3.17;;;;;;;;;;5077794;28;20338;-68
2023/03/12 14:13:50;;;;;;;3.88;3.03;;;;;;;;;;5081104;28;20028;-68
2023/03/12 14:16:21;;;;;;;4.45;2.92;;;;;;;;;;5075175;28;20668;-68
2023/03/12 14:18:47;;;;;;;9.80;3.40;;;;;;;;;;5082913;28;20623;-68
2023/03/12 14:21:15;;;;;;;7.57;3.83;;;;;;;;;;5080021;28;20048;-68
2023/03/12 14:23:59;;;;;;;5.68;3.42;;;;;;;;;;5078613;28;20036;-68
2023/03/12 14:26:30;;;;;;;5.03;3.30;;;;;;;;;;5079886;28;20024;-68
2023/03/12 14:29:00;;;;;;;4.65;3.42;;;;;;;;;;5080648;28;20039;-68
2023/03/12 14:31:27;;;;;;;6.50;3.50;;;;;;;;;;5083042;28;20024;-68
2023/03/12 14:34:01;;;;;;;12.02;4.75;;;;;;;;;;5079750;28;20032;-68
2023/03/12 14:36:31;;;;;;;7.30;3.95;;;;;;;;;;5077972;28;20034;-68
2023/03/12 14:38:59;;;;;;;7.05;4.13;;;;;;;;;;5077999;28;20482;-70